Time;durP1;ratioP1;P1;durP2;ratioP2;P2;SDS_P1;SDS_P2;PMS_P1;PMS_P2;Temp;Humidity;BMP_temperature;BMP_pressure;BME280_temperature;BME280_humidity;BME280_pressure;Samples;Min_cycle;Max_cycle;Signal;HPM_P1;HPM_P2
2023/05/09 00:01:50;;;;;;;17.40;14.77;;;;;;;14.66;69.62;97030.66;4979265;28;20051;-75
2023/05/09 00:04:18;;;;;;;18.15;14.35;;;;;;;14.62;69.67;97035.50;4978279;28;20114;-76
2023/05/09 00:06:47;;;;;;;17.02;13.18;;;;;;;14.59;70.12;97028.00;4978450;28;20062;-75
2023/05/09 00:09:14;;;;;;;17.50;15.02;;;;;;;14.62;71.79;97024.19;4978694;28;20432;-75
2023/05/09 00:11:42;;;;;;;16.30;13.93;;;;;;;14.70;72.59;97017.97;4978887;28;20061;-75
2023/05/09 00:14:11;;;;;;;18.17;14.35;;;;;;;14.78;72.98;97012.50;4975934;28;20050;-80
2023/05/09 00:16:38;;;;;;;16.35;14.60;;;;;;;14.84;71.93;97012.53;4976030;28;20086;-75
2023/05/09 00:19:06;;;;;;;17.80;14.73;;;;;;;14.86;70.43;97014.16;4975561;28;20446;-75
2023/05/09 00:21:34;;;;;;;14.75;12.88;;;;;;;14.84;71.70;97011.72;4975246;28;20073;-75
2023/05/09 00:24:04;;;;;;;17.60;14.40;;;;;;;14.87;72.61;97007.88;4973997;28;20426;-75
2023/05/09 00:26:31;;;;;;;15.98;13.68;;;;;;;14.86;70.98;97012.34;4974145;28;20522;-75
2023/05/09 00:28:59;;;;;;;18.88;14.98;;;;;;;14.82;70.00;97003.22;4973655;28;20051;-75
2023/05/09 00:31:27;;;;;;;16.20;13.95;;;;;;;14.80;70.46;97000.00;4973892;28;20062;-75
2023/05/09 00:33:55;;;;;;;20.70;15.20;;;;;;;14.76;69.58;96994.34;4973362;28;20086;-75
2023/05/09 00:36:22;;;;;;;19.80;14.60;;;;;;;14.76;71.06;96996.97;4973802;28;20055;-75
2023/05/09 00:38:50;;;;;;;16.92;14.15;;;;;;;14.75;70.01;96991.91;4973510;28;20070;-75
2023/05/09 00:41:20;;;;;;;18.30;14.13;;;;;;;14.75;70.77;96991.91;4973514;28;20046;-75
2023/05/09 00:43:47;;;;;;;21.13;14.27;;;;;;;14.75;72.37;96982.19;4972925;28;20076;-75
2023/05/09 00:46:15;;;;;;;18.70;14.70;;;;;;;14.74;70.36;96985.84;4973636;28;20054;-75
2023/05/09 00:48:43;;;;;;;18.33;13.60;;;;;;;14.70;69.15;96979.38;4973573;28;20046;-75
2023/05/09 00:51:10;;;;;;;16.15;14.00;;;;;;;14.66;70.13;96982.59;4973436;28;20058;-75
2023/05/09 00:53:38;;;;;;;14.27;12.65;;;;;;;14.64;69.68;96974.91;4973322;28;20495;-75
2023/05/09 00:56:07;;;;;;;17.50;15.00;;;;;;;14.62;68.61;96971.69;4973289;28;20061;-75
2023/05/09 00:58:36;;;;;;;17.35;13.80;;;;;;;14.57;68.25;96969.66;4973270;28;20047;-75
2023/05/09 01:01:03;;;;;;;16.25;13.60;;;;;;;14.51;67.70;96965.16;4973598;28;20055;-75
2023/05/09 01:03:31;;;;;;;20.20;14.40;;;;;;;14.46;67.53;96957.06;4972952;28;20133;-75
2023/05/09 01:06:06;;;;;;;16.27;13.98;;;;;;;14.43;67.41;96962.72;4973338;28;20101;-75
2023/05/09 01:08:46;;;;;;;19.13;14.93;;;;;;;14.37;66.46;96953.00;4973374;28;20047;-75
2023/05/09 01:11:22;;;;;;;18.90;14.95;;;;;;;14.27;66.52;96958.59;4972937;28;20137;-76
2023/05/09 01:13:59;;;;;;;17.27;14.52;;;;;;;14.22;68.48;96950.53;4972993;28;20097;-75
2023/05/09 01:16:34;;;;;;;20.60;15.80;;;;;;;14.15;66.47;96949.69;4973278;28;20050;-75
2023/05/09 01:19:17;;;;;;;18.70;14.65;;;;;;;14.05;66.98;96938.75;4973156;28;20047;-75
2023/05/09 01:21:48;;;;;;;18.17;14.55;;;;;;;14.02;67.10;96939.94;4973241;28;20503;-75
2023/05/09 01:24:33;;;;;;;18.87;15.13;;;;;;;13.98;66.82;96942.13;4973002;28;20242;-75
2023/05/09 01:27:15;;;;;;;23.02;16.50;;;;;;;13.95;67.03;96933.84;4973216;28;20554;-75
2023/05/09 01:29:46;;;;;;;22.08;15.93;;;;;;;13.89;67.15;96927.56;4972937;28;20541;-75
2023/05/09 01:32:18;;;;;;;18.10;14.65;;;;;;;13.87;67.02;96936.66;4973037;28;20495;-75
2023/05/09 01:34:47;;;;;;;17.23;14.35;;;;;;;13.83;67.09;96935.41;4973473;28;20055;-75
2023/05/09 01:37:16;;;;;;;18.27;15.43;;;;;;;13.80;66.85;96940.03;4973601;28;20467;-75
2023/05/09 01:39:48;;;;;;;17.60;14.43;;;;;;;13.78;67.08;96933.38;4973318;28;20086;-75
2023/05/09 01:42:20;;;;;;;20.23;15.80;;;;;;;13.75;66.99;96928.50;4973312;28;20078;-75
2023/05/09 01:44:50;;;;;;;22.15;15.45;;;;;;;13.71;67.55;96929.88;4973566;28;20498;-75
2023/05/09 01:47:19;;;;;;;20.13;16.02;;;;;;;13.70;67.63;96925.66;4973723;28;20400;-75
2023/05/09 01:49:47;;;;;;;19.27;15.32;;;;;;;13.67;67.44;96926.06;4978598;28;20054;-75
2023/05/09 01:52:18;;;;;;;20.25;16.55;;;;;;;13.64;67.51;96921.19;4987475;28;20081;-75
2023/05/09 01:54:47;;;;;;;17.13;14.48;;;;;;;13.58;67.76;96928.81;4988096;28;20078;-75
2023/05/09 01:57:14;;;;;;;18.60;15.88;;;;;;;13.56;68.64;96927.41;4986428;28;20062;-75
2023/05/09 01:59:44;;;;;;;21.25;15.85;;;;;;;13.54;68.06;96914.47;4979436;28;20057;-75
2023/05/09 02:02:14;;;;;;;22.33;16.33;;;;;;;13.50;68.11;96913.25;4978583;28;20059;-75
2023/05/09 02:04:43;;;;;;;18.25;15.13;;;;;;;13.50;68.73;96921.09;4977463;28;20106;-75
2023/05/09 02:07:12;;;;;;;21.70;16.17;;;;;;;13.52;68.76;96915.69;4976976;28;20057;-75
2023/05/09 02:09:40;;;;;;;22.83;16.67;;;;;;;13.54;68.56;96911.84;4976793;28;20507;-75
2023/05/09 02:12:07;;;;;;;18.75;15.95;;;;;;;13.59;71.48;96919.94;4976943;28;20446;-75
2023/05/09 02:14:35;;;;;;;20.80;17.55;;;;;;;13.61;69.59;96917.13;4976584;28;20494;-75
2023/05/09 02:17:05;;;;;;;23.00;17.35;;;;;;;13.59;70.71;96919.94;4977897;28;20137;-75
2023/05/09 02:19:36;;;;;;;21.02;16.58;;;;;;;13.54;70.52;96919.72;4978484;28;20094;-76
2023/05/09 02:22:04;;;;;;;19.60;16.33;;;;;;;13.51;69.72;96917.50;4980870;28;20047;-76
2023/05/09 02:24:33;;;;;;;20.67;16.73;;;;;;;13.47;69.11;96918.88;4976427;28;20093;-75
2023/05/09 02:27:03;;;;;;;21.55;17.00;;;;;;;13.44;69.76;96929.72;4976680;28;20054;-76
2023/05/09 02:29:38;;;;;;;19.58;15.80;;;;;;;13.46;70.17;96930.34;4975934;28;20502;-76
2023/05/09 02:32:08;;;;;;;19.83;16.63;;;;;;;13.50;71.37;96938.66;4976077;28;20054;-76
2023/05/09 02:34:39;;;;;;;22.58;17.05;;;;;;;13.52;69.90;96934.81;4976039;28;20182;-76
2023/05/09 02:37:07;;;;;;;20.23;16.70;;;;;;;13.51;70.32;96927.97;4976115;28;20063;-75
2023/05/09 02:39:35;;;;;;;20.83;17.52;;;;;;;13.47;69.52;96926.75;4976022;28;20051;-75
2023/05/09 02:42:07;;;;;;;19.77;15.95;;;;;;;13.45;69.31;96923.50;4975848;28;20149;-76
2023/05/09 02:44:35;;;;;;;24.10;17.70;;;;;;;13.40;69.15;96923.25;4975544;28;20247;-75
2023/05/09 02:47:03;;;;;;;24.02;17.58;;;;;;;13.38;70.52;96917.38;4975462;28;20055;-76
2023/05/09 02:49:31;;;;;;;21.83;17.38;;;;;;;13.32;69.69;96912.94;4975762;28;20053;-75
2023/05/09 02:52:00;;;;;;;26.23;17.40;;;;;;;13.22;69.58;96918.47;4975862;28;20050;-75
2023/05/09 02:54:28;;;;;;;24.40;18.23;;;;;;;13.17;69.81;96915.63;4975540;28;20050;-75
2023/05/09 02:56:56;;;;;;;26.77;19.00;;;;;;;13.13;70.95;96922.22;4975476;28;20141;-75
2023/05/09 02:59:23;;;;;;;23.50;18.02;;;;;;;13.06;70.05;96909.09;4975336;28;20051;-76
2023/05/09 03:01:51;;;;;;;26.88;19.92;;;;;;;12.97;70.42;96910.22;4975599;28;20050;-75
2023/05/09 03:04:19;;;;;;;24.92;17.60;;;;;;;12.93;70.87;96906.34;4975268;28;20113;-75
2023/05/09 03:06:46;;;;;;;24.05;18.58;;;;;;;12.92;70.68;96907.34;4974701;28;20046;-76
2023/05/09 03:09:15;;;;;;;25.10;18.23;;;;;;;12.95;72.04;96917.47;4975057;28;20554;-75
2023/05/09 03:11:43;;;;;;;23.10;18.15;;;;;;;12.95;71.22;96912.22;4974964;28;20541;-76
2023/05/09 03:14:12;;;;;;;25.38;18.13;;;;;;;12.92;70.59;96910.78;4974855;28;20051;-76
2023/05/09 03:16:39;;;;;;;25.00;18.63;;;;;;;12.91;71.17;96905.75;4975089;28;20541;-76
2023/05/09 03:19:07;;;;;;;23.95;18.40;;;;;;;12.92;70.71;96905.56;4975115;28;20054;-75
2023/05/09 03:21:35;;;;;;;23.35;17.80;;;;;;;12.91;70.02;96898.69;4974810;28;20503;-76
2023/05/09 03:24:03;;;;;;;23.85;18.65;;;;;;;12.87;69.33;96905.28;4975265;28;20051;-75
2023/05/09 03:26:34;;;;;;;22.80;17.50;;;;;;;12.82;69.49;96907.69;4974637;28;20086;-76
2023/05/09 03:29:07;;;;;;;20.70;16.98;;;;;;;12.82;69.54;96901.63;4987758;23;20047;-88
2023/05/09 03:31:35;;;;;;;23.92;17.73;;;;;;;12.81;68.86;96900.00;4966602;29;20051;-84
2023/05/09 03:34:13;;;;;;;24.35;18.30;;;;;;;12.78;68.87;96902.00;4967706;28;20511;-84
2023/05/09 03:36:43;;;;;;;20.45;16.88;;;;;;;12.84;69.52;96902.25;4976020;28;20050;-85
2023/05/09 03:39:22;;;;;;;20.40;15.18;;;;;;;12.89;71.32;96902.50;4972757;28;20051;-85
2023/05/09 03:41:58;;;;;;;23.08;17.55;;;;;;;12.96;69.28;96904.16;4965226;29;20051;-83
2023/05/09 03:44:27;;;;;;;21.15;15.75;;;;;;;13.01;68.93;96908.84;4965337;29;20133;-85
2023/05/09 03:46:56;;;;;;;21.30;16.20;;;;;;;13.03;67.74;96908.63;4981091;28;20053;-86
2023/05/09 03:49:28;;;;;;;23.35;17.02;;;;;;;12.99;67.51;96908.22;4982520;28;20047;-88
2023/05/09 03:52:01;;;;;;;24.30;16.15;;;;;;;12.95;67.41;96907.78;4964822;28;20521;-83
2023/05/09 03:54:33;;;;;;;20.05;15.35;;;;;;;12.93;67.76;96904.53;4964349;29;20051;-86
2023/05/09 03:57:05;;;;;;;21.02;15.85;;;;;;;12.92;67.49;96908.19;4964255;29;20090;-84
2023/05/09 03:59:33;;;;;;;21.60;16.95;;;;;;;12.89;67.20;96899.88;4967298;29;20074;-82
2023/05/09 04:02:01;;;;;;;24.10;16.88;;;;;;;12.89;67.28;96897.25;4969098;28;20078;-83
2023/05/09 04:04:29;;;;;;;20.52;15.70;;;;;;;12.88;67.02;96900.84;4975105;28;20042;-83
2023/05/09 04:06:57;;;;;;;17.80;15.13;;;;;;;12.89;66.93;96889.41;4970395;28;20161;-85
2023/05/09 04:09:26;;;;;;;19.73;13.70;;;;;;;12.93;67.83;96888.84;4961179;28;20051;-85
2023/05/09 04:11:53;;;;;;;19.75;15.07;;;;;;;12.94;67.23;96892.25;4962437;28;20079;-85
2023/05/09 04:14:23;;;;;;;20.42;14.85;;;;;;;12.95;66.44;96896.50;4973973;28;20055;-83
2023/05/09 04:16:51;;;;;;;17.70;15.05;;;;;;;12.95;67.07;96902.53;4974216;28;20105;-82
2023/05/09 04:19:19;;;;;;;18.63;15.07;;;;;;;12.97;68.09;96899.75;4974080;28;20057;-83
2023/05/09 04:21:47;;;;;;;19.50;14.88;;;;;;;12.98;66.39;96886.44;4970228;28;20055;-83
2023/05/09 04:24:15;;;;;;;18.17;14.38;;;;;;;13.00;67.11;96888.88;4977750;28;20054;-82
2023/05/09 04:26:45;;;;;;;21.92;15.27;;;;;;;12.97;66.18;96879.59;4979289;28;20137;-87
2023/05/09 04:29:13;;;;;;;19.30;15.27;;;;;;;12.98;65.90;96883.03;4972295;28;20070;-84
2023/05/09 04:31:42;;;;;;;17.05;13.73;;;;;;;13.00;67.16;96888.88;4966756;28;20051;-84
2023/05/09 04:34:10;;;;;;;20.58;13.90;;;;;;;13.03;65.74;96878.03;4964821;28;20055;-89
2023/05/09 04:36:38;;;;;;;18.00;13.77;;;;;;;13.05;65.72;96891.72;4969443;28;20055;-89
2023/05/09 04:39:06;;;;;;;17.27;14.38;;;;;;;13.08;64.73;96894.00;4966762;29;20062;-87
2023/05/09 04:41:34;;;;;;;16.95;13.55;;;;;;;13.05;64.36;96876.03;4964772;28;20075;-89
2023/05/09 04:44:03;;;;;;;18.10;13.57;;;;;;;13.04;64.91;96879.66;4967543;28;20054;-87
2023/05/09 04:46:35;;;;;;;17.25;13.95;;;;;;;13.08;65.21;96875.66;4970308;28;20066;-80
2023/05/09 04:49:04;;;;;;;17.50;12.90;;;;;;;13.16;66.86;96872.91;4971888;28;20082;-81
2023/05/09 04:51:32;;;;;;;16.92;13.80;;;;;;;13.19;64.86;96869.88;4975814;28;20130;-83
2023/05/09 04:53:59;;;;;;;19.48;14.43;;;;;;;13.23;64.26;96869.50;4956371;28;20051;-85
2023/05/09 04:56:27;;;;;;;17.63;13.45;;;;;;;13.22;64.63;96873.94;4955411;28;20498;-86
2023/05/09 04:58:55;;;;;;;18.35;14.00;;;;;;;13.23;64.12;96874.72;4954434;28;20109;-83
2023/05/09 05:01:22;;;;;;;19.58;15.13;;;;;;;13.18;63.48;96870.91;4954451;28;20054;-81
2023/05/09 05:03:50;;;;;;;20.95;15.07;;;;;;;13.18;63.50;96868.28;4953984;28;20582;-88
2023/05/09 05:06:19;;;;;;;19.25;14.40;;;;;;;13.17;63.37;96874.50;4954177;28;20485;-84
2023/05/09 05:08:47;;;;;;;25.60;18.05;;;;;;;13.19;63.59;96875.13;4954642;28;20055;-83
2023/05/09 05:11:16;;;;;;;22.15;15.50;;;;;;;13.25;63.36;96875.34;4961991;29;20058;-88
2023/05/09 05:13:44;;;;;;;17.30;13.60;;;;;;;13.27;63.15;96873.34;4968564;28;20043;-88
2023/05/09 05:16:12;;;;;;;15.98;13.88;;;;;;;13.29;63.08;96879.25;4959454;28;20090;-89
2023/05/09 05:18:40;;;;;;;19.00;14.05;;;;;;;13.28;62.86;96875.81;4958776;28;20073;-89
2023/05/09 05:21:08;;;;;;;16.05;13.18;;;;;;;13.25;62.81;96876.19;4959070;28;20719;-89
2023/05/09 05:23:37;;;;;;;16.95;13.98;;;;;;;13.27;62.78;96889.91;4958570;28;20105;-87
2023/05/09 05:26:05;;;;;;;19.08;15.02;;;;;;;13.28;63.60;96882.84;4959231;28;20436;-89
2023/05/09 05:28:33;;;;;;;16.05;13.48;;;;;;;13.30;63.39;96883.50;4958726;28;20424;-88
2023/05/09 05:31:00;;;;;;;19.70;15.40;;;;;;;13.28;63.00;96885.47;4963095;29;20048;-89
2023/05/09 05:33:28;;;;;;;20.27;14.55;;;;;;;13.24;62.97;96877.16;4963051;28;20047;-88
2023/05/09 05:35:56;;;;;;;18.98;14.52;;;;;;;13.25;63.00;96880.59;4963113;28;20051;-87
2023/05/09 05:38:24;;;;;;;14.25;12.45;;;;;;;13.30;64.20;96888.72;4963403;28;20119;-90
2023/05/09 05:40:53;;;;;;;17.48;13.77;;;;;;;13.28;62.70;96898.56;4962280;28;20425;-87
2023/05/09 05:43:20;;;;;;;17.85;14.30;;;;;;;13.25;63.42;96891.91;4965884;28;20115;-87
2023/05/09 05:45:48;;;;;;;21.60;14.90;;;;;;;13.22;62.73;96892.25;4962477;28;20055;-88
2023/05/09 05:48:16;;;;;;;17.05;13.63;;;;;;;13.17;62.84;96890.22;4961774;29;20066;-87
2023/05/09 05:50:44;;;;;;;18.67;14.52;;;;;;;13.14;62.77;96888.00;4961252;28;20419;-85
2023/05/09 05:53:11;;;;;;;20.35;14.10;;;;;;;13.11;62.74;96885.75;4960982;28;20467;-86
2023/05/09 05:55:39;;;;;;;16.83;14.10;;;;;;;13.10;62.75;96881.50;4961153;28;20141;-89
2023/05/09 05:58:08;;;;;;;19.75;14.30;;;;;;;13.06;62.52;96877.66;4961812;28;20054;-88
2023/05/09 06:00:36;;;;;;;16.35;13.77;;;;;;;13.03;62.80;96885.06;4961522;28;20051;-88
2023/05/09 06:03:04;;;;;;;19.23;15.18;;;;;;;13.04;62.78;96878.84;4961738;28;20134;-88
2023/05/09 06:05:32;;;;;;;18.67;14.02;;;;;;;13.03;63.66;96885.06;4962106;29;20047;-87
2023/05/09 06:07:59;;;;;;;20.90;15.30;;;;;;;13.03;63.75;96880.66;4961494;28;20427;-89
2023/05/09 06:10:27;;;;;;;19.08;14.38;;;;;;;13.03;63.68;96879.84;4961692;28;20049;-87
2023/05/09 06:12:55;;;;;;;18.52;14.63;;;;;;;13.08;65.94;96875.66;4962902;28;20051;-86
2023/05/09 06:15:24;;;;;;;15.95;13.43;;;;;;;13.16;66.79;96878.13;4962653;29;20055;-87
2023/05/09 06:17:52;;;;;;;16.08;13.60;;;;;;;13.16;63.90;96872.91;4962594;28;20047;-88
2023/05/09 06:20:19;;;;;;;18.63;14.68;;;;;;;13.16;63.00;96865.03;4962539;28;20517;-87
2023/05/09 06:22:47;;;;;;;19.60;15.18;;;;;;;13.11;63.01;96863.97;4962136;28;20062;-88
2023/05/09 06:25:15;;;;;;;18.48;14.88;;;;;;;13.12;64.64;96858.56;4961502;28;20081;-88
2023/05/09 06:27:43;;;;;;;16.35;13.82;;;;;;;13.16;64.83;96851.94;4961978;28;20078;-88
2023/05/09 06:30:12;;;;;;;17.55;14.10;;;;;;;13.24;64.84;96855.41;4962141;28;20074;-88
2023/05/09 06:32:53;;;;;;;16.75;14.05;;;;;;;13.30;65.63;96857.28;4961783;29;20057;-88
2023/05/09 06:35:21;;;;;;;15.93;13.10;;;;;;;13.32;63.26;96858.72;4961657;28;20460;-88
2023/05/09 06:37:49;;;;;;;16.65;13.52;;;;;;;13.33;64.03;96855.09;4961680;29;20055;-89
2023/05/09 06:40:17;;;;;;;16.25;13.30;;;;;;;13.40;64.05;96852.50;4961043;28;20054;-87
2023/05/09 06:42:45;;;;;;;19.70;12.90;;;;;;;13.47;65.19;96850.75;4961515;28;20142;-87
2023/05/09 06:45:13;;;;;;;15.45;13.18;;;;;;;13.57;63.40;96853.81;4961430;28;20051;-86
2023/05/09 06:47:41;;;;;;;21.08;14.25;;;;;;;13.67;63.46;96852.66;4961111;28;20051;-87
2023/05/09 06:50:11;;;;;;;15.77;13.43;;;;;;;13.79;65.54;96853.69;4961664;28;20145;-87
2023/05/09 06:52:38;;;;;;;20.92;14.82;;;;;;;13.91;63.66;96851.34;4960522;28;20140;-88
2023/05/09 06:55:08;;;;;;;15.35;13.02;;;;;;;14.00;62.78;96842.28;4960146;28;20079;-89
2023/05/09 06:57:36;;;;;;;16.55;13.98;;;;;;;14.07;62.31;96844.94;4960926;29;20059;-88
2023/05/09 07:00:05;;;;;;;16.83;13.40;;;;;;;14.10;62.09;96837.47;4961185;28;20051;-84
2023/05/09 07:02:33;;;;;;;17.08;13.88;;;;;;;14.12;61.90;96826.78;4960930;28;20054;-88
2023/05/09 07:05:01;;;;;;;18.83;14.30;;;;;;;14.13;61.53;96831.03;4960016;28;20059;-83
2023/05/09 07:07:30;;;;;;;17.08;12.98;;;;;;;14.16;61.68;96825.38;4961023;28;20062;-89
2023/05/09 07:09:59;;;;;;;14.88;12.80;;;;;;;14.23;61.72;96820.94;4960271;28;20051;-87
2023/05/09 07:12:38;;;;;;;15.05;12.65;;;;;;;14.31;61.77;96822.59;4960195;29;20079;-87
2023/05/09 07:15:08;;;;;;;18.65;13.00;;;;;;;14.36;61.54;96820.97;4959599;28;20057;-88
2023/05/09 07:17:36;;;;;;;19.58;13.75;;;;;;;14.42;61.02;96814.13;4960066;28;20055;-87
2023/05/09 07:20:04;;;;;;;15.57;12.70;;;;;;;14.47;60.79;96810.88;4961388;28;20047;-86
2023/05/09 07:22:33;;;;;;;19.67;13.20;;;;;;;14.52;60.67;96813.69;4960919;28;20055;-85
2023/05/09 07:25:06;;;;;;;16.33;12.15;;;;;;;14.60;60.65;96805.66;4962022;29;20518;-87
2023/05/09 07:27:33;;;;;;;13.90;11.63;;;;;;;14.69;60.33;96806.28;4961188;28;20146;-88
2023/05/09 07:30:01;;;;;;;15.20;12.10;;;;;;;14.80;60.31;96801.22;4961252;28;20143;-86
2023/05/09 07:32:29;;;;;;;19.20;12.68;;;;;;;14.94;60.88;96795.97;4960981;28;20511;-87
2023/05/09 07:34:57;;;;;;;16.73;12.02;;;;;;;15.09;61.13;96783.41;4960959;28;20138;-88
2023/05/09 07:37:25;;;;;;;13.82;10.23;;;;;;;15.24;59.25;96776.09;4963241;28;20055;-90
2023/05/09 07:39:54;;;;;;;12.07;10.60;;;;;;;15.40;58.19;96781.91;4962930;28;20515;-88
2023/05/09 07:42:22;;;;;;;12.20;10.18;;;;;;;15.51;57.52;96776.00;4964041;28;20051;-89
2023/05/09 07:44:50;;;;;;;11.02;9.75;;;;;;;15.64;58.83;96773.31;4963547;29;20588;-88
2023/05/09 07:47:18;;;;;;;10.85;9.55;;;;;;;15.79;57.50;96774.91;4964407;29;20057;-85
2023/05/09 07:49:46;;;;;;;12.70;9.45;;;;;;;15.93;57.29;96773.00;4964739;28;20079;-87
2023/05/09 07:52:16;;;;;;;11.00;9.35;;;;;;;16.06;57.01;96768.44;4962709;28;20051;-85
2023/05/09 07:54:44;;;;;;;9.32;8.40;;;;;;;16.19;55.58;96769.41;4965134;28;20066;-87
2023/05/09 07:57:13;;;;;;;12.57;9.02;;;;;;;16.29;55.59;96772.38;4963826;28;20525;-86
2023/05/09 07:59:41;;;;;;;10.30;8.73;;;;;;;16.40;55.72;96769.03;4963380;28;20485;-84
2023/05/09 08:02:09;;;;;;;10.60;8.32;;;;;;;16.52;54.90;96763.88;4961728;28;20555;-85
2023/05/09 08:04:39;;;;;;;11.90;8.32;;;;;;;16.63;53.97;96767.63;4961359;28;20051;-85
2023/05/09 08:07:08;;;;;;;10.52;8.60;;;;;;;16.68;53.74;96755.44;4962303;29;20068;-82
2023/05/09 08:09:36;;;;;;;9.20;8.15;;;;;;;16.77;53.52;96745.44;4963982;28;20581;-88
2023/05/09 08:12:05;;;;;;;11.35;8.18;;;;;;;16.88;52.58;96739.47;4966615;28;20051;-88
2023/05/09 08:14:34;;;;;;;10.55;7.85;;;;;;;16.99;52.74;96737.13;4965581;28;20134;-87
2023/05/09 08:17:02;;;;;;;9.57;7.93;;;;;;;17.08;52.98;96735.84;4964090;28;20063;-86
2023/05/09 08:19:30;;;;;;;8.77;7.25;;;;;;;17.21;53.63;96737.53;4963313;28;20053;-86
2023/05/09 08:21:58;;;;;;;10.88;8.70;;;;;;;17.35;53.28;96730.25;4963140;28;20059;-86
2023/05/09 08:24:26;;;;;;;8.00;7.00;;;;;;;17.46;54.12;96727.66;4963237;28;20090;-86
2023/05/09 08:26:54;;;;;;;8.85;7.28;;;;;;;17.56;52.46;96708.69;4962913;28;20055;-87
2023/05/09 08:29:22;;;;;;;9.77;7.38;;;;;;;17.68;52.63;96712.16;4962949;28;20062;-87
2023/05/09 08:31:51;;;;;;;7.97;7.18;;;;;;;17.83;51.44;96718.91;4964197;28;20051;-88
2023/05/09 08:34:20;;;;;;;7.35;6.57;;;;;;;17.95;51.46;96706.56;4964451;28;20059;-87
2023/05/09 08:36:48;;;;;;;7.13;6.43;;;;;;;18.06;50.96;96707.59;4965827;28;20059;-87
2023/05/09 08:39:18;;;;;;;10.15;6.40;;;;;;;18.12;49.20;96699.56;4965222;28;20074;-88
2023/05/09 08:41:46;;;;;;;7.68;6.82;;;;;;;18.22;49.18;96696.38;4966260;28;20478;-88
2023/05/09 08:44:14;;;;;;;10.00;6.93;;;;;;;18.32;48.46;96696.63;4965616;28;20051;-88
2023/05/09 08:46:44;;;;;;;8.23;6.35;;;;;;;18.41;48.64;96697.09;4964920;28;20055;-87
2023/05/09 08:49:15;;;;;;;6.50;5.88;;;;;;;18.52;48.74;96696.28;4964599;28;20483;-85
2023/05/09 08:51:44;;;;;;;9.20;6.15;;;;;;;18.64;48.58;96687.56;4964016;29;20106;-88
2023/05/09 08:54:12;;;;;;;8.35;5.45;;;;;;;18.73;48.88;96680.88;4964215;28;20078;-87
2023/05/09 08:56:41;;;;;;;6.60;5.90;;;;;;;18.80;47.50;96678.94;4965241;28;20055;-87
2023/05/09 08:59:10;;;;;;;6.15;5.43;;;;;;;18.86;48.55;96678.00;4964515;28;20066;-89
2023/05/09 09:01:38;;;;;;;7.00;5.13;;;;;;;18.96;47.01;96682.72;4964040;28;20082;-87
2023/05/09 09:04:07;;;;;;;5.10;4.60;;;;;;;19.05;45.19;96677.88;4963352;28;20059;-86
2023/05/09 09:06:37;;;;;;;5.30;4.22;;;;;;;19.14;47.83;96677.28;4965160;28;20590;-85
2023/05/09 09:09:07;;;;;;;5.63;4.30;;;;;;;19.26;45.43;96679.91;4964069;28;20527;-86
2023/05/09 09:11:38;;;;;;;5.65;5.00;;;;;;;19.36;44.50;96679.28;4962648;28;20055;-86
2023/05/09 09:14:12;;;;;;;7.05;5.07;;;;;;;19.44;42.83;96680.72;4964061;29;20471;-87
2023/05/09 09:16:43;;;;;;;9.13;5.07;;;;;;;19.52;45.12;96670.56;4964964;29;20059;-86
2023/05/09 09:19:12;;;;;;;10.93;5.05;;;;;;;19.61;43.61;96659.63;4966018;29;20047;-87
2023/05/09 09:21:46;;;;;;;4.85;4.30;;;;;;;19.70;42.71;96663.50;4965885;28;20055;-85
2023/05/09 09:24:20;;;;;;;6.53;4.50;;;;;;;19.75;43.54;96661.75;4965571;29;20063;-89
2023/05/09 09:26:49;;;;;;;6.47;4.60;;;;;;;19.82;42.42;96663.47;4966488;29;20062;-88
2023/05/09 09:29:19;;;;;;;8.50;4.57;;;;;;;19.81;42.52;96652.09;4965870;28;20503;-87
2023/05/09 09:31:48;;;;;;;5.97;4.70;;;;;;;19.82;43.01;96661.63;4967921;29;20554;-87
2023/05/09 09:34:21;;;;;;;6.80;5.53;;;;;;;19.88;42.91;96646.63;4968170;29;20055;-88
2023/05/09 09:36:51;;;;;;;6.05;5.05;;;;;;;19.95;44.07;96645.41;4968842;29;20057;-87
2023/05/09 09:39:20;;;;;;;7.80;4.85;;;;;;;20.05;43.43;96631.56;4968313;28;20519;-86
2023/05/09 09:41:48;;;;;;;6.38;5.72;;;;;;;20.18;43.61;96622.44;4968540;29;20051;-88
2023/05/09 09:44:18;;;;;;;6.43;5.00;;;;;;;20.27;43.84;96621.03;4967245;28;20075;-89
2023/05/09 09:46:49;;;;;;;7.45;4.63;;;;;;;20.38;44.37;96612.16;4968216;29;20055;-85
2023/05/09 09:49:22;;;;;;;6.35;4.50;;;;;;;20.50;43.34;96603.31;4967701;29;20603;-85
2023/05/09 09:51:55;;;;;;;5.13;4.07;;;;;;;20.60;42.90;96613.25;4966351;29;20522;-83
2023/05/09 09:54:26;;;;;;;6.67;4.43;;;;;;;20.66;40.40;96604.34;4967214;29;20066;-82
2023/05/09 09:56:55;;;;;;;4.15;3.75;;;;;;;20.68;40.63;96595.09;4967104;29;20141;-84
2023/05/09 09:59:26;;;;;;;4.60;3.75;;;;;;;20.73;41.93;96592.50;4966067;28;20471;-89
2023/05/09 10:02:02;;;;;;;4.63;3.50;;;;;;;20.81;38.96;96590.47;4966484;28;20051;-89
2023/05/09 10:04:40;;;;;;;4.45;3.00;;;;;;;20.85;38.52;96586.28;4965958;29;20455;-86
2023/05/09 10:07:11;;;;;;;6.18;3.13;;;;;;;20.90;38.85;96588.97;4967391;28;20434;-86
2023/05/09 10:09:49;;;;;;;8.10;3.78;;;;;;;20.96;38.71;96572.09;4968081;29;20507;-88
2023/05/09 10:12:33;;;;;;;3.38;3.08;;;;;;;20.90;38.41;96571.25;4968198;29;20079;-87
2023/05/09 10:15:08;;;;;;;3.15;2.65;;;;;;;20.93;38.62;96576.03;4968364;28;20058;-86
2023/05/09 10:17:37;;;;;;;4.53;2.70;;;;;;;21.04;38.97;96578.81;4968644;29;20062;-86
2023/05/09 10:20:08;;;;;;;3.05;2.72;;;;;;;21.19;38.57;96563.06;4969517;28;20055;-87
2023/05/09 10:22:43;;;;;;;4.32;2.25;;;;;;;21.31;36.39;96563.69;4970842;29;20054;-86
2023/05/09 10:25:18;;;;;;;3.30;2.83;;;;;;;21.42;37.80;96561.16;4971981;29;20082;-88
2023/05/09 10:27:52;;;;;;;5.60;3.42;;;;;;;21.52;38.69;96556.75;4970405;29;20047;-86
2023/05/09 10:30:33;;;;;;;5.75;3.63;;;;;;;21.59;37.58;96548.59;4968830;28;20043;-87
2023/05/09 10:33:06;;;;;;;4.22;3.10;;;;;;;21.63;38.92;96540.94;4969807;29;20142;-87
2023/05/09 10:35:43;;;;;;;5.78;3.38;;;;;;;21.63;37.90;96546.22;4968891;29;20066;-85
2023/05/09 10:38:18;;;;;;;3.75;3.05;;;;;;;21.59;37.83;96541.41;4968629;29;20062;-86
2023/05/09 10:40:52;;;;;;;3.58;3.28;;;;;;;21.63;37.79;96544.38;4968697;29;20507;-89
2023/05/09 10:43:22;;;;;;;4.50;3.60;;;;;;;21.63;37.57;96531.09;4967508;29;20058;-86
2023/05/09 10:45:59;;;;;;;4.90;3.50;;;;;;;21.60;38.65;96531.59;4968756;29;20054;-86
2023/05/09 10:48:29;;;;;;;4.13;3.20;;;;;;;21.63;38.13;96525.78;4967052;29;20504;-85
2023/05/09 10:51:01;;;;;;;4.30;3.90;;;;;;;21.64;38.00;96518.63;4966976;28;20075;-84
2023/05/09 10:53:50;;;;;;;4.10;3.70;;;;;;;21.64;38.21;96516.75;4969105;29;20134;-86
2023/05/09 10:56:34;;;;;;;3.97;3.58;;;;;;;21.69;39.09;96522.13;4968022;29;20431;-87
2023/05/09 10:59:04;;;;;;;3.42;3.17;;;;;;;21.75;38.31;96518.44;4969634;29;20055;-87
2023/05/09 11:01:38;;;;;;;3.95;2.30;;;;;;;21.75;38.13;96510.47;4968031;29;20134;-89
2023/05/09 11:04:11;;;;;;;3.65;2.30;;;;;;;21.83;38.08;96509.19;4968554;29;20051;-85
2023/05/09 11:06:47;;;;;;;5.60;2.38;;;;;;;21.90;36.96;96496.50;4968240;28;20051;-86
2023/05/09 11:09:29;;;;;;;4.88;2.50;;;;;;;21.87;36.92;96486.41;4968124;29;20062;-86
2023/05/09 11:12:04;;;;;;;3.80;3.42;;;;;;;21.89;38.33;96486.16;4968225;29;20051;-89
2023/05/09 11:14:37;;;;;;;5.72;3.67;;;;;;;21.85;38.43;96485.06;4966620;29;20051;-83
2023/05/09 11:17:11;;;;;;;3.80;3.40;;;;;;;21.79;37.94;96485.00;4966780;29;20094;-86
2023/05/09 11:20:04;;;;;;;4.25;3.85;;;;;;;21.76;38.99;96474.91;4966156;29;20051;-85
2023/05/09 11:22:41;;;;;;;4.50;3.88;;;;;;;21.76;38.82;96477.56;4967422;29;20061;-83
2023/05/09 11:25:13;;;;;;;3.55;3.25;;;;;;;21.73;39.22;96464.00;4967212;29;20567;-85
2023/05/09 11:27:46;;;;;;;4.40;3.30;;;;;;;21.83;41.67;96468.59;4965675;28;20051;-86
2023/05/09 11:30:18;;;;;;;3.97;3.53;;;;;;;21.95;39.69;96463.84;4964699;28;20114;-84
2023/05/09 11:32:57;;;;;;;4.75;3.28;;;;;;;22.03;40.10;96444.78;4963178;29;20055;-87
2023/05/09 11:35:30;;;;;;;3.83;3.53;;;;;;;22.17;40.16;96459.19;4966939;29;20071;-88